This is the latest recevied weather packets stored in our database for station/object WA4IKQ. If no packets are shown the sender has not sent any weather packets the latest 10 day(s).
| Time | Temp. | Humidity | Pressure | Rain* | Wind** | Luminosity | Snow |
|---|---|---|---|---|---|---|---|
| 1777418126 | 26.11° C | 64% | 1018 hPa | 0 mm | 3.13 m/s, 63° | - | - |
| 1777417828 | 26.67° C | 63% | 1018 hPa | 0 mm | 3.13 m/s, 31° | - | - |
| 1777417624 | 26.67° C | 63% | 1018 hPa | 0 mm | 3.13 m/s, 31° | - | - |
| 1777417474 | 26.67° C | 62% | 1017.9 hPa | 0 mm | 1.34 m/s, 76° | - | - |
| 1777417432 | 26.67° C | 62% | 1017.9 hPa | 0 mm | 1.34 m/s, 76° | - | - |
| 1777417325 | 26.67° C | 62% | 1017.9 hPa | 0 mm | 1.34 m/s, 76° | - | - |
| 1777417226 | 26.67° C | 61% | 1017.8 hPa | 0 mm | 3.13 m/s, 59° | - | - |
| 1777417027 | 26.67° C | 61% | 1017.8 hPa | 0 mm | 3.13 m/s, 59° | - | - |
| 1777416979 | 26.67° C | 61% | 1017.9 hPa | 0 mm | 3.13 m/s, 15° | - | - |
| 1777416932 | 26.67° C | 61% | 1017.9 hPa | 0 mm | 3.13 m/s, 15° | - | - |
| 1777416725 | 26.67° C | 61% | 1017.9 hPa | 0 mm | 3.13 m/s, 15° | - | - |
| 1777416532 | 26.67° C | 60% | 1017.9 hPa | 0 mm | 2.68 m/s, 55° | - | - |
| 1777416426 | 26.67° C | 60% | 1017.9 hPa | 0 mm | 2.68 m/s, 55° | - | - |
| 1777416317 | 27.22° C | 60% | 1017.8 hPa | 0 mm | 1.34 m/s, 38° | - | - |
| 1777416126 | 27.22° C | 60% | 1017.8 hPa | 0 mm | 1.34 m/s, 38° | - | - |
| 1777415321 | 27.22° C | 59% | 1017.8 hPa | 0 mm | 1.34 m/s, 51° | - | - |
| 1777415226 | 27.22° C | 59% | 1017.8 hPa | 0 mm | 1.34 m/s, 51° | - | - |
| 1777415127 | 27.22° C | 60% | 1017.8 hPa | 0 mm | 2.24 m/s, 83° | - | - |
| 1777414924 | 27.22° C | 60% | 1017.8 hPa | 0 mm | 2.24 m/s, 83° | - | - |
| 1777414736 | 27.22° C | 59% | 1017.8 hPa | 0 mm | 3.58 m/s, 38° | - | - |
| 1777414625 | 27.22° C | 59% | 1017.8 hPa | 0 mm | 3.58 m/s, 38° | - | - |
| 1777414511 | 27.22° C | 59% | 1017.8 hPa | 0 mm | 1.79 m/s, 79° | - | - |
| 1777414448 | 27.22° C | 59% | 1017.8 hPa | 0 mm | 1.79 m/s, 79° | - | - |
| 1777414325 | 27.22° C | 59% | 1017.8 hPa | 0 mm | 1.79 m/s, 79° | - | - |
| 1777414237 | 27.78° C | 59% | 1017.9 hPa | 0 mm | 2.24 m/s, 49° | - | - |
* Rain latest hour (hover to see other rain measurements)
** Current wind speed in m/s (hover to see current wind gust speed)